createdAt,value
2019-03-29T00:01:45.216Z,17.80
2019-03-29T00:04:16.911Z,20.17
2019-03-29T00:06:48.434Z,17.03
2019-03-29T00:09:20.441Z,20.87
2019-03-29T00:11:53.716Z,19.47
2019-03-29T00:14:28.256Z,22.37
2019-03-29T00:17:01.974Z,19.73
2019-03-29T00:19:33.778Z,18.80
2019-03-29T00:22:05.563Z,21.10
2019-03-29T00:24:37.503Z,19.90
2019-03-29T00:27:09.314Z,20.77
2019-03-29T00:29:41.066Z,20.90
2019-03-29T00:32:12.841Z,17.20
2019-03-29T00:34:44.532Z,15.27
2019-03-29T00:37:16.269Z,17.30
2019-03-29T00:39:48.042Z,20.87
2019-03-29T00:42:19.746Z,19.53
2019-03-29T00:44:52.203Z,17.00
2019-03-29T00:47:24.622Z,12.80
2019-03-29T00:49:57.912Z,17.47
2019-03-29T00:52:29.366Z,18.70
2019-03-29T00:55:01.071Z,16.03
2019-03-29T00:57:32.515Z,17.70
2019-03-29T01:00:04.755Z,17.50
2019-03-29T01:02:37.267Z,11.40
2019-03-29T01:05:09.076Z,11.80
2019-03-29T01:07:40.848Z,12.10
2019-03-29T01:10:13.643Z,10.63
2019-03-29T01:12:45.333Z,16.57
2019-03-29T01:15:17.076Z,14.23
2019-03-29T01:17:48.751Z,11.27
2019-03-29T01:20:21.787Z,14.30
2019-03-29T01:22:53.990Z,14.60
2019-03-29T01:25:25.425Z,17.07
2019-03-29T01:27:57.196Z,12.33
2019-03-29T01:30:28.876Z,12.23
2019-03-29T01:33:00.719Z,13.33
2019-03-29T01:35:32.398Z,15.80
2019-03-29T01:38:04.242Z,11.67
2019-03-29T01:40:35.747Z,14.57
2019-03-29T01:43:07.560Z,9.93
2019-03-29T01:45:39.222Z,13.63
2019-03-29T01:48:10.911Z,10.10
2019-03-29T01:50:42.714Z,13.97
2019-03-29T01:53:14.711Z,11.97
2019-03-29T01:55:46.147Z,13.33
2019-03-29T01:58:18.110Z,10.17
2019-03-29T02:00:49.612Z,10.77
2019-03-29T02:03:21.551Z,13.60
2019-03-29T02:05:53.913Z,11.63
2019-03-29T02:08:35.564Z,16.67
2019-03-29T02:10:58.527Z,10.60
2019-03-29T02:13:30.207Z,19.00
2019-03-29T02:16:02.145Z,13.50
2019-03-29T02:18:33.904Z,14.07
2019-03-29T02:21:05.891Z,16.40
2019-03-29T02:23:37.600Z,18.67
2019-03-29T02:26:09.276Z,17.20
2019-03-29T02:28:41.932Z,13.90
2019-03-29T02:31:13.373Z,14.93
2019-03-29T02:33:45.073Z,13.30
2019-03-29T02:36:16.756Z,13.83
2019-03-29T02:38:55.701Z,11.73
2019-03-29T02:41:21.853Z,13.80
2019-03-29T02:43:53.299Z,17.43
2019-03-29T02:46:25.808Z,16.17
2019-03-29T02:48:57.664Z,19.47
2019-03-29T02:51:29.099Z,16.33
2019-03-29T02:54:00.897Z,12.67
2019-03-29T02:56:32.584Z,17.13
2019-03-29T02:59:04.332Z,13.63
2019-03-29T03:01:36.017Z,14.93
2019-03-29T03:04:07.799Z,13.47
2019-03-29T03:06:39.459Z,16.97
2019-03-29T03:09:13.870Z,17.50
2019-03-29T03:11:44.283Z,17.47
2019-03-29T03:14:15.973Z,15.07
2019-03-29T03:16:47.483Z,14.23
2019-03-29T03:19:19.170Z,14.17
2019-03-29T03:21:50.855Z,18.47
2019-03-29T03:24:22.556Z,19.10
2019-03-29T03:26:54.234Z,12.00
2019-03-29T03:29:25.716Z,11.53
2019-03-29T03:31:57.237Z,13.63
2019-03-29T03:34:28.783Z,16.17
2019-03-29T03:37:00.319Z,18.73
2019-03-29T03:39:32.790Z,16.63
2019-03-29T03:42:04.671Z,16.90
2019-03-29T03:44:36.157Z,16.23
2019-03-29T03:47:07.590Z,19.83
2019-03-29T03:49:39.280Z,15.73
2019-03-29T03:52:10.803Z,17.60
2019-03-29T03:54:42.754Z,17.50
2019-03-29T03:57:15.292Z,15.23
2019-03-29T03:59:47.807Z,19.90
2019-03-29T04:02:19.908Z,15.47
2019-03-29T04:04:51.599Z,13.27
2019-03-29T04:07:23.266Z,16.23
2019-03-29T04:09:54.956Z,11.17
2019-03-29T04:12:26.641Z,13.83
2019-03-29T04:14:58.614Z,12.57
2019-03-29T04:17:30.551Z,16.10
2019-03-29T04:20:02.044Z,18.57
2019-03-29T04:22:33.712Z,18.77
2019-03-29T04:25:06.250Z,16.20
2019-03-29T04:27:37.940Z,19.83
2019-03-29T04:30:09.707Z,21.67
2019-03-29T04:32:41.390Z,15.23
2019-03-29T04:35:13.068Z,19.20
2019-03-29T04:37:44.740Z,16.87
2019-03-29T04:40:16.840Z,17.83
2019-03-29T04:42:49.760Z,16.20
2019-03-29T04:45:22.441Z,16.87
2019-03-29T04:47:54.117Z,16.50
2019-03-29T04:50:25.801Z,17.73
2019-03-29T04:52:57.474Z,18.33
2019-03-29T04:55:29.154Z,20.17
2019-03-29T04:58:00.730Z,18.73
2019-03-29T05:00:32.582Z,16.70
2019-03-29T05:03:04.075Z,19.83
2019-03-29T05:05:36.088Z,17.67
2019-03-29T05:08:07.759Z,21.43
2019-03-29T05:10:39.456Z,20.23
2019-03-29T05:13:11.347Z,21.23
2019-03-29T05:15:43.023Z,19.13
2019-03-29T05:18:14.691Z,18.93
2019-03-29T05:20:46.371Z,20.73
2019-03-29T05:23:18.035Z,15.60
2019-03-29T05:25:49.714Z,19.77
2019-03-29T05:28:21.145Z,16.93
2019-03-29T05:30:53.114Z,16.13
2019-03-29T05:33:25.042Z,13.87
2019-03-29T05:35:56.739Z,19.73
2019-03-29T05:38:28.519Z,17.07
2019-03-29T05:41:00.284Z,19.37
2019-03-29T05:43:31.705Z,20.70
2019-03-29T05:46:03.411Z,19.70
2019-03-29T05:48:34.887Z,23.00
2019-03-29T05:51:06.859Z,20.83
2019-03-29T05:53:38.499Z,20.27
2019-03-29T05:56:10.277Z,21.17
2019-03-29T05:58:42.003Z,21.57
2019-03-29T06:01:14.004Z,21.03
2019-03-29T06:03:45.896Z,18.83
2019-03-29T06:06:17.711Z,17.03
2019-03-29T06:08:49.406Z,17.33
2019-03-29T06:11:21.082Z,16.37
2019-03-29T06:13:53.056Z,18.77
2019-03-29T06:16:38.095Z,20.03
2019-03-29T06:18:59.775Z,17.00
2019-03-29T06:21:31.459Z,16.77
2019-03-29T06:24:03.399Z,17.83
2019-03-29T06:26:35.099Z,17.60
2019-03-29T06:29:06.779Z,22.33
2019-03-29T06:31:38.722Z,18.53
2019-03-29T06:34:10.755Z,23.77
2019-03-29T06:36:43.549Z,20.57
2019-03-29T06:39:15.657Z,21.83
2019-03-29T06:41:47.339Z,20.23
2019-03-29T06:44:19.017Z,21.67
2019-03-29T06:46:50.707Z,19.00
2019-03-29T06:49:22.147Z,21.53
2019-03-29T06:51:53.833Z,21.53
2019-03-29T06:54:25.623Z,22.30
2019-03-29T06:56:57.313Z,17.73
2019-03-29T06:59:29.213Z,24.63
2019-03-29T07:02:01.047Z,22.70
2019-03-29T07:04:32.972Z,25.87
2019-03-29T07:07:04.814Z,24.63
2019-03-29T07:09:36.702Z,28.57
2019-03-29T07:12:08.359Z,25.13
2019-03-29T07:14:39.789Z,23.90
2019-03-29T07:17:11.707Z,26.93
2019-03-29T07:19:43.376Z,21.13
2019-03-29T07:22:16.423Z,23.70
2019-03-29T07:24:47.864Z,29.90
2019-03-29T07:27:21.171Z,25.63
2019-03-29T07:29:54.123Z,26.93
2019-03-29T07:32:25.820Z,28.77
2019-03-29T07:34:57.550Z,28.47
2019-03-29T07:37:29.277Z,28.47
2019-03-29T07:40:01.192Z,32.43
2019-03-29T07:42:33.011Z,38.83
2019-03-29T07:45:04.912Z,41.67
2019-03-29T07:47:38.060Z,42.83
2019-03-29T07:50:09.806Z,44.53
2019-03-29T07:52:43.155Z,40.27
2019-03-29T07:55:19.182Z,37.63
2019-03-29T07:58:10.506Z,39.00
2019-03-29T08:00:44.180Z,36.87
2019-03-29T08:03:15.864Z,35.83
2019-03-29T08:05:47.615Z,36.00
2019-03-29T08:08:24.780Z,40.33
2019-03-29T08:10:56.455Z,36.87
2019-03-29T08:13:29.585Z,45.70
2019-03-29T08:16:01.559Z,42.13
2019-03-29T08:18:33.247Z,39.20
2019-03-29T08:21:09.071Z,40.83
2019-03-29T08:23:40.752Z,39.23
2019-03-29T08:26:12.450Z,42.63
2019-03-29T08:28:44.160Z,42.33
2019-03-29T08:31:15.847Z,43.23
2019-03-29T08:33:47.831Z,42.77
2019-03-29T08:36:19.519Z,45.43
2019-03-29T08:38:50.959Z,49.87
2019-03-29T08:41:22.636Z,42.30
2019-03-29T08:43:54.323Z,46.67
2019-03-29T08:46:25.776Z,49.20
2019-03-29T08:48:57.231Z,49.33
2019-03-29T08:51:28.915Z,49.53
2019-03-29T08:54:00.367Z,51.73
2019-03-29T08:56:32.051Z,52.17
2019-03-29T08:59:04.128Z,55.00
2019-03-29T09:01:35.956Z,57.43
2019-03-29T09:04:08.121Z,59.50
2019-03-29T09:06:52.689Z,60.00
2019-03-29T09:09:13.129Z,63.90
2019-03-29T09:11:44.574Z,65.13
2019-03-29T09:14:16.332Z,64.33
2019-03-29T09:16:48.020Z,64.00
2019-03-29T09:19:19.481Z,60.73
2019-03-29T09:21:50.911Z,63.77
2019-03-29T09:24:22.745Z,56.47
2019-03-29T09:26:54.471Z,58.93
2019-03-29T09:29:25.915Z,55.50
2019-03-29T09:31:58.687Z,51.23
2019-03-29T09:34:30.151Z,63.00
2019-03-29T09:37:01.835Z,53.73
2019-03-29T09:39:33.793Z,53.23
2019-03-29T09:42:05.391Z,57.87
2019-03-29T09:44:38.059Z,56.27
2019-03-29T09:47:10.111Z,58.27
2019-03-29T09:49:42.055Z,59.97
2019-03-29T09:52:13.748Z,54.47
2019-03-29T09:54:45.617Z,53.27
2019-03-29T09:57:17.287Z,49.47
2019-03-29T09:59:49.008Z,47.57
2019-03-29T10:02:20.801Z,52.30
2019-03-29T10:04:52.512Z,53.03
2019-03-29T10:07:24.067Z,55.37
2019-03-29T10:09:55.775Z,48.80
2019-03-29T10:12:27.319Z,45.53
2019-03-29T10:14:59.056Z,44.10
2019-03-29T10:17:30.501Z,54.07
2019-03-29T10:20:02.583Z,52.30
2019-03-29T10:22:35.343Z,51.33
2019-03-29T10:25:18.597Z,45.47
2019-03-29T10:27:40.356Z,43.43
2019-03-29T10:30:14.407Z,44.47
2019-03-29T10:32:46.112Z,40.37
2019-03-29T10:35:17.788Z,48.70
2019-03-29T10:37:49.471Z,49.60
2019-03-29T10:40:21.882Z,44.23
2019-03-29T10:42:58.161Z,51.85
2019-03-29T10:45:27.594Z,52.62
2019-03-29T10:47:59.699Z,48.93
2019-03-29T10:50:31.912Z,47.23
2019-03-29T10:53:03.600Z,42.30
2019-03-29T10:55:35.381Z,43.93
2019-03-29T10:58:09.692Z,48.07
2019-03-29T11:00:41.343Z,45.30
2019-03-29T11:03:13.159Z,47.07
2019-03-29T11:05:44.637Z,46.40
2019-03-29T11:08:16.484Z,46.47
2019-03-29T11:10:48.191Z,49.57
2019-03-29T11:13:19.791Z,48.43
2019-03-29T11:15:51.917Z,48.10
2019-03-29T11:18:23.351Z,48.07
2019-03-29T11:20:55.131Z,49.60
2019-03-29T11:23:26.815Z,48.00
2019-03-29T11:25:58.530Z,50.03
2019-03-29T11:28:30.023Z,49.27
2019-03-29T11:31:01.803Z,47.83
2019-03-29T11:33:33.477Z,51.87
2019-03-29T11:36:06.012Z,46.80
2019-03-29T11:38:37.927Z,43.93
2019-03-29T11:41:12.173Z,48.60
2019-03-29T11:43:45.392Z,49.93
2019-03-29T11:46:17.091Z,48.27
2019-03-29T11:48:52.530Z,50.30
2019-03-29T11:51:26.488Z,51.23
2019-03-29T11:53:58.563Z,46.20
2019-03-29T11:56:30.452Z,46.00
2019-03-29T11:59:02.222Z,43.03
2019-03-29T12:01:33.989Z,45.70
2019-03-29T12:04:06.286Z,46.93
2019-03-29T12:06:38.059Z,49.27
2019-03-29T12:09:09.820Z,42.97
2019-03-29T12:11:41.599Z,44.13
2019-03-29T12:14:13.492Z,45.40
2019-03-29T12:16:45.352Z,48.80
2019-03-29T12:19:17.040Z,52.93
2019-03-29T12:21:48.748Z,54.00
2019-03-29T12:24:20.185Z,49.63
2019-03-29T12:26:54.887Z,51.83
2019-03-29T12:29:25.280Z,54.40
2019-03-29T12:31:56.957Z,49.57
2019-03-29T12:34:28.678Z,52.33
2019-03-29T12:37:00.398Z,50.13
2019-03-29T12:39:35.231Z,53.70
2019-03-29T12:42:08.370Z,54.60
2019-03-29T12:44:40.057Z,51.27
2019-03-29T12:47:11.750Z,55.37
2019-03-29T12:49:43.964Z,50.90
2019-03-29T12:52:15.679Z,50.83
2019-03-29T12:54:47.366Z,54.63
2019-03-29T12:57:19.138Z,52.37
2019-03-29T12:59:50.825Z,50.20
2019-03-29T13:02:23.609Z,49.30
2019-03-29T13:04:55.358Z,47.33
2019-03-29T13:07:27.047Z,53.53
2019-03-29T13:09:58.752Z,46.67
2019-03-29T13:12:30.521Z,53.43
2019-03-29T13:15:02.223Z,51.57
2019-03-29T13:17:35.867Z,55.13
2019-03-29T13:20:08.921Z,53.57
2019-03-29T13:22:40.775Z,58.23
2019-03-29T13:25:12.971Z,53.53
2019-03-29T13:27:44.493Z,56.07
2019-03-29T13:30:17.404Z,57.90
2019-03-29T13:32:49.138Z,56.67
2019-03-29T13:35:20.927Z,51.43
2019-03-29T13:37:52.697Z,51.63
2019-03-29T13:40:25.099Z,61.87
2019-03-29T13:42:57.063Z,57.20
2019-03-29T13:45:28.740Z,52.23
2019-03-29T13:48:01.536Z,52.67
2019-03-29T13:50:33.229Z,53.73
2019-03-29T13:53:04.674Z,52.47
2019-03-29T13:55:36.355Z,53.57
2019-03-29T13:58:07.883Z,51.90
2019-03-29T14:00:39.635Z,53.43
2019-03-29T14:03:13.266Z,59.10
2019-03-29T14:05:44.939Z,52.77
2019-03-29T14:08:17.239Z,58.20
2019-03-29T14:10:48.996Z,56.57
2019-03-29T14:13:20.710Z,57.27
2019-03-29T14:15:52.396Z,52.40
2019-03-29T14:18:24.343Z,57.67
2019-03-29T14:20:56.540Z,55.77
2019-03-29T14:23:28.268Z,53.87
2019-03-29T14:25:59.699Z,59.97
2019-03-29T14:28:31.155Z,53.90
2019-03-29T14:31:02.839Z,58.93
2019-03-29T14:33:35.045Z,59.50
2019-03-29T14:36:06.491Z,54.07
2019-03-29T14:38:37.935Z,56.13
2019-03-29T14:41:09.611Z,57.07
2019-03-29T14:43:41.311Z,53.40
2019-03-29T14:46:14.276Z,57.20
2019-03-29T14:48:45.984Z,58.67
2019-03-29T14:51:18.919Z,56.00
2019-03-29T14:53:50.623Z,57.17
2019-03-29T14:56:22.411Z,53.90
2019-03-29T14:58:54.117Z,54.70
2019-03-29T15:01:25.787Z,54.70
2019-03-29T15:03:57.504Z,59.90
2019-03-29T15:06:29.110Z,58.10
2019-03-29T15:09:02.965Z,62.20
2019-03-29T15:11:36.084Z,55.47
2019-03-29T15:14:07.774Z,55.97
2019-03-29T15:16:39.476Z,61.27
2019-03-29T15:19:11.177Z,66.13
2019-03-29T15:21:42.859Z,55.93
2019-03-29T15:24:14.516Z,59.20
2019-03-29T15:26:46.599Z,65.97
2019-03-29T15:29:18.162Z,60.83
2019-03-29T15:31:49.844Z,60.33
2019-03-29T15:34:21.657Z,63.37
2019-03-29T15:36:53.583Z,67.40
2019-03-29T15:39:25.355Z,61.97
2019-03-29T15:41:57.435Z,62.33
2019-03-29T15:44:29.580Z,63.40
2019-03-29T15:47:01.399Z,62.27
2019-03-29T15:49:34.440Z,65.83
2019-03-29T15:52:06.295Z,62.17
2019-03-29T15:54:38.092Z,64.13
2019-03-29T15:57:09.572Z,61.60
2019-03-29T15:59:41.039Z,62.77
2019-03-29T16:02:13.037Z,61.93
2019-03-29T16:04:44.872Z,67.83
2019-03-29T16:07:16.640Z,64.90
2019-03-29T16:09:48.618Z,63.07
2019-03-29T16:12:20.498Z,67.13
2019-03-29T16:14:52.475Z,64.43
2019-03-29T16:17:25.368Z,64.27
2019-03-29T16:19:57.368Z,61.33
2019-03-29T16:22:29.467Z,60.50
2019-03-29T16:25:12.391Z,64.93
2019-03-29T16:27:44.115Z,60.50
2019-03-29T16:30:16.439Z,62.87
2019-03-29T16:32:48.112Z,63.00
2019-03-29T16:35:19.896Z,63.13
2019-03-29T16:37:56.974Z,65.50
2019-03-29T16:40:24.507Z,62.40
2019-03-29T16:42:56.274Z,58.57
2019-03-29T16:45:28.029Z,64.47
2019-03-29T16:48:00.058Z,59.67
2019-03-29T16:50:31.862Z,68.17
2019-03-29T16:53:03.564Z,67.63
2019-03-29T16:55:35.155Z,61.23
2019-03-29T16:58:07.603Z,61.80
2019-03-29T17:00:41.592Z,60.50
2019-03-29T17:03:13.767Z,63.23
2019-03-29T17:05:50.125Z,62.73
2019-03-29T17:08:22.726Z,66.37
2019-03-29T17:11:00.123Z,63.10
2019-03-29T17:13:32.672Z,69.37
2019-03-29T17:16:04.254Z,62.10
2019-03-29T17:18:40.304Z,60.50
2019-03-29T17:21:12.779Z,64.40
2019-03-29T17:23:44.628Z,68.97
2019-03-29T17:26:20.413Z,62.03
2019-03-29T17:28:52.193Z,63.90
2019-03-29T17:31:24.055Z,66.13
2019-03-29T17:33:59.112Z,63.10
2019-03-29T17:36:31.117Z,61.67
2019-03-29T17:39:03.100Z,66.13
2019-03-29T17:41:35.696Z,67.90
2019-03-29T17:44:07.959Z,68.33
2019-03-29T17:46:43.686Z,62.67
2019-03-29T17:49:16.391Z,67.77
2019-03-29T17:51:48.983Z,62.83
2019-03-29T17:54:21.161Z,60.67
2019-03-29T17:56:55.123Z,66.03
2019-03-29T17:59:26.871Z,64.40
2019-03-29T18:02:08.819Z,62.60
2019-03-29T18:04:32.363Z,61.00
2019-03-29T18:07:03.847Z,60.00
2019-03-29T18:09:35.623Z,59.53
2019-03-29T18:12:07.497Z,64.47
2019-03-29T18:14:40.832Z,47.40
2019-03-29T18:17:12.808Z,57.80
2019-03-29T18:19:44.864Z,50.20
2019-03-29T18:22:16.351Z,57.47
2019-03-29T18:24:47.929Z,50.90
2019-03-29T18:27:19.701Z,54.50
2019-03-29T18:29:51.705Z,52.67
2019-03-29T18:32:23.948Z,48.70
2019-03-29T18:34:55.714Z,59.40
2019-03-29T18:37:28.177Z,56.63
2019-03-29T18:39:59.846Z,51.37
2019-03-29T18:42:31.351Z,54.77
2019-03-29T18:45:03.378Z,47.50
2019-03-29T18:47:34.872Z,48.93
2019-03-29T18:50:06.853Z,50.83
2019-03-29T18:52:38.543Z,48.87
2019-03-29T18:55:10.385Z,49.37
2019-03-29T18:57:42.375Z,52.23
2019-03-29T19:00:14.906Z,52.67
2019-03-29T19:02:46.352Z,54.63
2019-03-29T19:05:25.163Z,52.77
2019-03-29T19:07:56.882Z,54.87
2019-03-29T19:10:28.568Z,60.60
2019-03-29T19:13:00.348Z,53.20
2019-03-29T19:15:32.317Z,46.87
2019-03-29T19:18:05.084Z,46.37
2019-03-29T19:20:36.793Z,56.10
2019-03-29T19:23:08.780Z,52.10
2019-03-29T19:25:40.894Z,51.27
2019-03-29T19:28:12.529Z,52.20
2019-03-29T19:30:44.872Z,49.60
2019-03-29T19:33:17.959Z,51.57
2019-03-29T19:35:49.715Z,52.40
2019-03-29T19:38:22.391Z,48.70
2019-03-29T19:40:54.095Z,52.40
2019-03-29T19:43:25.935Z,57.40
2019-03-29T19:45:57.764Z,55.53
2019-03-29T19:48:29.827Z,46.10
2019-03-29T19:51:01.766Z,53.60
2019-03-29T19:53:34.436Z,51.67
2019-03-29T19:56:06.321Z,49.47
2019-03-29T19:58:37.821Z,52.80
2019-03-29T20:01:09.620Z,43.00
2019-03-29T20:03:41.443Z,49.87
2019-03-29T20:06:12.919Z,52.17
2019-03-29T20:08:44.680Z,55.53
2019-03-29T20:11:16.721Z,48.97
2019-03-29T20:13:48.475Z,50.97
2019-03-29T20:16:20.630Z,49.83
2019-03-29T20:18:52.135Z,53.23
2019-03-29T20:21:24.318Z,50.57
2019-03-29T20:23:56.147Z,93.37
2019-03-29T20:26:28.908Z,44.37
2019-03-29T20:29:00.650Z,44.73
2019-03-29T20:31:32.190Z,53.97
2019-03-29T20:34:03.900Z,44.87
2019-03-29T20:36:35.352Z,48.60
2019-03-29T20:39:07.919Z,44.53
2019-03-29T20:41:40.978Z,45.43
2019-03-29T20:44:12.679Z,50.53
2019-03-29T20:46:44.612Z,47.90
2019-03-29T20:49:17.066Z,45.93
2019-03-29T20:51:48.755Z,45.10
2019-03-29T20:54:21.535Z,45.30
2019-03-29T20:56:52.955Z,48.30
2019-03-29T20:59:24.647Z,42.17
2019-03-29T21:01:56.323Z,40.63
2019-03-29T21:04:28.035Z,51.00
2019-03-29T21:07:00.064Z,54.57
2019-03-29T21:09:31.663Z,47.57
2019-03-29T21:12:03.173Z,46.23
2019-03-29T21:14:34.843Z,57.17
2019-03-29T21:17:07.011Z,57.07
2019-03-29T21:19:39.881Z,61.40
2019-03-29T21:22:12.152Z,60.80
2019-03-29T21:27:17.179Z,62.40
2019-03-29T21:29:49.007Z,51.80
2019-03-29T21:32:37.207Z,57.00
2019-03-29T21:35:10.122Z,60.77
2019-03-29T21:37:41.554Z,55.20
2019-03-29T21:40:13.424Z,47.90
2019-03-29T21:42:45.279Z,45.27
2019-03-29T21:45:27.965Z,52.57
2019-03-29T21:48:01.863Z,47.30
2019-03-29T21:50:24.541Z,46.83
2019-03-29T21:52:57.051Z,43.07
2019-03-29T21:55:28.754Z,50.77
2019-03-29T21:58:00.443Z,55.87
2019-03-29T22:00:32.149Z,52.43
2019-03-29T22:03:03.904Z,50.73
2019-03-29T22:05:35.689Z,56.83
2019-03-29T22:08:07.424Z,56.83
2019-03-29T22:10:39.279Z,58.00
2019-03-29T22:13:11.156Z,61.27
2019-03-29T22:15:43.036Z,62.80
2019-03-29T22:18:15.035Z,65.60
2019-03-29T22:20:47.169Z,63.03
2019-03-29T22:23:19.043Z,61.03
2019-03-29T22:25:51.014Z,50.13
2019-03-29T22:28:24.147Z,51.63
2019-03-29T22:30:55.831Z,54.43
2019-03-29T22:33:28.743Z,48.60
2019-03-29T22:36:00.491Z,50.93
2019-03-29T22:38:32.173Z,58.97
2019-03-29T22:41:04.023Z,53.07
2019-03-29T22:43:35.699Z,49.93
2019-03-29T22:46:07.391Z,50.07
2019-03-29T22:48:51.650Z,50.33
2019-03-29T22:51:13.003Z,52.27
2019-03-29T22:53:44.681Z,52.40
2019-03-29T22:56:17.341Z,43.00
2019-03-29T22:58:48.771Z,50.97
2019-03-29T23:01:20.375Z,60.90
2019-03-29T23:03:52.067Z,47.73
2019-03-29T23:06:23.831Z,51.63
2019-03-29T23:08:55.503Z,42.83
2019-03-29T23:11:26.955Z,63.63
2019-03-29T23:13:58.635Z,51.73
2019-03-29T23:16:30.586Z,53.03
2019-03-29T23:19:06.809Z,49.50
2019-03-29T23:21:35.711Z,59.27
2019-03-29T23:24:07.671Z,54.87
2019-03-29T23:26:39.134Z,57.83
2019-03-29T23:29:10.815Z,57.43
2019-03-29T23:31:42.511Z,54.63
2019-03-29T23:34:14.020Z,47.40
2019-03-29T23:36:45.695Z,49.60
2019-03-29T23:39:17.443Z,53.43
2019-03-29T23:41:48.970Z,56.67
2019-03-29T23:44:20.648Z,62.47
2019-03-29T23:46:52.623Z,68.90
2019-03-29T23:49:24.592Z,62.97
2019-03-29T23:51:56.287Z,64.30
2019-03-29T23:54:27.960Z,52.03
2019-03-29T23:56:59.644Z,48.77
2019-03-29T23:59:31.435Z,51.10
